Wan Hai 267 — 9VDB6 — position and weather

sailwx.info

Track history (hours):
 
Tides and Currents Weather Stations Pressure Air Temp Water Temp Dewpoint Dewpoint Depression Visibility Wind Speed Wind Dir Waves Ship Positions

Wan Hai 267

Last reported at 2018-Feb-24 08:53 UTC. Time now 2018-Feb-24 12:24 UTC.
Position N 22°20' E 114°08'.

Length 198 m; draft 9.1 m.

Type: Cargo ship. MMSI: 564527118.

Date/timePositionNaut miles runAvg speedWind from/ knotsBaromVisibWave heightAir tempDewpointWater temp
2018-Feb-24 08:53N 22°20' E 114°08'304 8.6
2018-Feb-22 21:20N 22°29' E 119°36'515.5
2018-Feb-22 20:59N 22°29' E 119°42'715.5
2018-Feb-22 20:30N 22°30' E 119°50'815.5
2018-Feb-22 20:01N 22°31' E 119°58'3 6.1
2018-Feb-22 19:30N 22°32' E 120°02'510.0
2018-Feb-22 19:00N 22°32' E 120°07'611.8
2018-Feb-22 18:30N 22°33' E 120°13'510.8
2018-Feb-22 18:00N 22°33' E 120°19'1 1.2
2018-Feb-22 17:28N 22°33' E 120°20'0 0.0
2018-Feb-22 16:58N 22°33' E 120°20'0 0.0
2018-Feb-22 16:28N 22°33' E 120°20'0 0.0
2018-Feb-22 15:58N 22°33' E 120°20'0 0.0
2018-Feb-22 15:28N 22°33' E 120°20'0 0.0
2018-Feb-22 14:58N 22°33' E 120°20'0 0.0
2018-Feb-22 14:28N 22°33' E 120°20'0 0.0
2018-Feb-22 13:58N 22°33' E 120°20'0 0.0
2018-Feb-22 13:28N 22°33' E 120°20'0 0.0
2018-Feb-22 12:58N 22°33' E 120°20'0 0.0
2018-Feb-22 12:28N 22°33' E 120°20'0 0.0
2018-Feb-22 11:58N 22°33' E 120°20'0 0.0
2018-Feb-22 11:28N 22°33' E 120°20'0 0.0
2018-Feb-22 10:58N 22°33' E 120°20'0 0.0
2018-Feb-22 10:28N 22°33' E 120°20'0 0.0
2018-Feb-22 09:58N 22°33' E 120°20'0 0.0
2018-Feb-22 09:28N 22°33' E 120°20'0 0.0
2018-Feb-22 08:58N 22°33' E 120°20'0 0.0
2018-Feb-22 08:28N 22°33' E 120°20'0 0.0
2018-Feb-22 07:58N 22°33' E 120°20'0 0.0
2018-Feb-22 07:28N 22°33' E 120°20'0 0.0
2018-Feb-22 06:58N 22°33' E 120°20'0 0.0
2018-Feb-22 06:28N 22°33' E 120°20'0 0.0
2018-Feb-22 05:58N 22°33' E 120°20'0 0.0
2018-Feb-22 05:28N 22°33' E 120°20'0 0.7
2018-Feb-22 05:00N 22°33' E 120°19'4 7.7
2018-Feb-22 04:30N 22°32' E 120°15'4 7.5
2018-Feb-22 04:00N 22°33' E 120°12'611.5
2018-Feb-22 03:30N 22°38' E 120°08'611.3
2018-Feb-22 03:00N 22°43' E 120°05'611.7
2018-Feb-22 02:30N 22°48' E 120°01'612.8
2018-Feb-22 02:00N 22°54' E 119°58'917.5
2018-Feb-22 01:30N 23°02' E 119°55'1217.4
2018-Feb-22 00:49N 23°14' E 119°53'618.2
2018-Feb-22 00:30N 23°19' E 119°54'918.5
2018-Feb-22 00:00N 23°28' E 119°54'11018.3
2018-Feb-21 18:00N 25°03' E 120°55'815.2
2018-Feb-21 17:30N 25°07' E 121°02'712.0
2018-Feb-21 16:56N 25°10' E 121°09'512.1
2018-Feb-21 16:30N 25°12' E 121°14'5 9.9
2018-Feb-21 16:00N 25°11' E 121°20'3 6.4
2018-Feb-21 15:29N 25°10' E 121°23'0 0.1
2018-Feb-21 14:59N 25°10' E 121°23'0 0.1
2018-Feb-21 14:29N 25°10' E 121°23'0 0.0
2018-Feb-21 13:56N 25°10' E 121°23'0 0.0
2018-Feb-21 10:50N 25°10' E 121°23'0 0.0
2018-Feb-21 08:56N 25°10' E 121°23'0 0.1
2018-Feb-21 08:05N 25°10' E 121°23'0 0.0
2018-Feb-21 07:44N 25°10' E 121°23'0 0.0
2018-Feb-21 07:28N 25°10' E 121°23'1 2.3
2018-Feb-21 07:00N 25°09' E 121°22'5 9.4
2018-Feb-21 06:30N 25°12' E 121°18'4 8.9
2018-Feb-21 06:00N 25°16' E 121°16'611.8
2018-Feb-21 05:30N 25°20' E 121°21'611.7
2018-Feb-21 04:59N 25°23' E 121°26'1212.8
2018-Feb-21 04:01N 25°31' E 121°37'218.7
2018-Feb-21 03:56N 25°32' E 121°39'1317.7
2018-Feb-21 03:12N 25°40' E 121°50'  
2018-Feb-18 15:59N 34°11' E 138°17'715.3
2018-Feb-18 15:30N 34°14' E 138°25'815.2
2018-Feb-18 14:59N 34°18' E 138°33'715.4
2018-Feb-18 14:30N 34°21' E 138°42'815.5
2018-Feb-18 14:00N 34°25' E 138°50'815.3
2018-Feb-18 13:30N 34°29' E 138°57'916.2
2018-Feb-18 12:58N 34°36' E 139°03'916.3
2018-Feb-18 12:24N 34°45' E 139°09'715.9
2018-Feb-18 11:58N 34°50' E 139°14'716.0
2018-Feb-18 11:30N 34°53' E 139°22'916.1
2018-Feb-18 10:58N 34°58' E 139°31'716.3
2018-Feb-18 10:30N 35°03' E 139°38'816.8
2018-Feb-18 10:00N 35°09' E 139°44'612.1
2018-Feb-18 09:30N 35°15' E 139°46'613.0
2018-Feb-18 09:00N 35°21' E 139°42'713.9
2018-Feb-18 08:31N 35°27' E 139°47'713.8
2018-Feb-18 08:01N 35°33' E 139°51'5 9.5
2018-Feb-18 07:30N 35°36' E 139°46'0 0.2
2018-Feb-18 06:52N 35°36' E 139°46'0 0.0
2018-Feb-18 06:28N 35°36' E 139°46'0 0.0
2018-Feb-18 04:28N 35°36' E 139°46'0 0.0
2018-Feb-18 02:34N 35°36' E 139°46'0 0.0
2018-Feb-18 02:13N 35°36' E 139°46'0 0.0
2018-Feb-18 01:43N 35°36' E 139°46'0 0.0
2018-Feb-17 23:43N 35°36' E 139°46'0 0.0
2018-Feb-17 23:22N 35°36' E 139°46'0 0.0
2018-Feb-17 22:55N 35°36' E 139°46'0 0.0
2018-Feb-17 22:22N 35°36' E 139°46'0 0.0
2018-Feb-17 21:46N 35°36' E 139°46'0 0.0
2018-Feb-17 21:28N 35°36' E 139°46'0 0.0
2018-Feb-17 20:58N 35°36' E 139°46'0 0.0
2018-Feb-17 20:25N 35°36' E 139°46'0 0.0
2018-Feb-17 19:55N 35°36' E 139°46'0 0.0
2018-Feb-17 19:25N 35°36' E 139°46'0 0.0
2018-Feb-17 18:55N 35°36' E 139°46'0 0.0
2018-Feb-17 18:25N 35°36' E 139°46'0 0.0
2018-Feb-17 17:58N 35°36' E 139°46'0 0.0
2018-Feb-17 17:28N 35°36' E 139°46'0 0.0
2018-Feb-17 16:58N 35°36' E 139°46'0 0.0
2018-Feb-17 16:22N 35°36' E 139°46'0 0.0
2018-Feb-17 15:58N 35°36' E 139°46'0 0.0
2018-Feb-17 15:22N 35°36' E 139°46'0 0.0
2018-Feb-17 14:43N 35°36' E 139°46'0 0.0
2018-Feb-17 14:21N 35°36' E 139°46'0 0.8
2018-Feb-17 14:00N 35°36' E 139°46'2 4.3
2018-Feb-17 13:30N 35°35' E 139°48'5 9.3
2018-Feb-17 13:00N 35°31' E 139°52'612.0
2018-Feb-17 12:30N 35°26' E 139°48'510.3
2018-Feb-17 12:00N 35°27' E 139°41'0 0.8
2018-Feb-17 11:30N 35°27' E 139°41'0 0.0
2018-Feb-17 11:00N 35°27' E 139°41'0 0.0
2018-Feb-17 10:30N 35°27' E 139°41'0 0.0
2018-Feb-17 10:00N 35°27' E 139°41'0 0.0
2018-Feb-17 09:30N 35°27' E 139°41'0 0.0
2018-Feb-17 09:00N 35°27' E 139°41'0 0.0
2018-Feb-17 08:30N 35°27' E 139°41'0 0.0
2018-Feb-17 08:00N 35°27' E 139°41'0 0.0
2018-Feb-17 07:30N 35°27' E 139°41'0 0.0
2018-Feb-17 07:00N 35°27' E 139°41'0 0.0
2018-Feb-17 06:30N 35°27' E 139°41'0 0.0
2018-Feb-17 06:00N 35°27' E 139°41'0 0.0
2018-Feb-17 05:30N 35°27' E 139°41'0 0.0
2018-Feb-17 05:00N 35°27' E 139°41'0 0.0
2018-Feb-17 04:30N 35°27' E 139°41'0 0.0
2018-Feb-17 04:00N 35°27' E 139°41'0 0.0
2018-Feb-17 03:30N 35°27' E 139°41'0 0.0
2018-Feb-17 03:00N 35°27' E 139°41'0 0.0
2018-Feb-17 02:30N 35°27' E 139°41'0 0.0
2018-Feb-17 02:00N 35°27' E 139°41'0 0.1
2018-Feb-17 01:30N 35°27' E 139°41'0 0.1
2018-Feb-17 01:00N 35°27' E 139°41'2 3.6
2018-Feb-17 00:30N 35°26' E 139°43'4 7.7
2018-Feb-17 00:01N 35°22' E 139°43'5 9.6
2018-Feb-16 23:30N 35°17' E 139°45'510.6
2018-Feb-16 23:00N 35°12' E 139°47'4 8.7
2018-Feb-16 22:30N 35°08' E 139°46'3 6.8
2018-Feb-16 22:00N 35°04' E 139°45'3 6.4
2018-Feb-16 21:31N 35°02' E 139°43'3 6.1
2018-Feb-16 21:00N 35°00' E 139°40'3 6.5
2018-Feb-16 20:31N 34°59' E 139°36'917.2
2018-Feb-16 20:00N 34°55' E 139°27'1018.5
2018-Feb-16 19:29N 34°49' E 139°18'1118.2
2018-Feb-16 18:52N 34°40' E 139°09'718.1
2018-Feb-16 18:29N 34°35' E 139°03'917.6
2018-Feb-16 17:58N 34°31' E 138°53'816.6
2018-Feb-16 17:29N 34°34' E 138°44'816.8
2018-Feb-16 17:00N 34°42' E 138°41'817.0
2018-Feb-16 16:30N 34°50' E 138°38'816.9
2018-Feb-16 16:00N 34°58' E 138°34'510.4
2018-Feb-16 15:30N 35°02' E 138°31'1 1.6
2018-Feb-16 14:59N 35°02' E 138°31'0 0.0
2018-Feb-16 14:29N 35°02' E 138°31'0 0.0
2018-Feb-16 13:59N 35°02' E 138°31'0 0.0
2018-Feb-16 13:29N 35°02' E 138°31'0 0.0
2018-Feb-16 12:59N 35°02' E 138°31'0 0.0
2018-Feb-16 12:29N 35°02' E 138°31'0 0.0
2018-Feb-16 11:59N 35°02' E 138°31'0 0.0
2018-Feb-16 11:29N 35°02' E 138°31'0 0.0
2018-Feb-16 10:59N 35°02' E 138°31'0 0.0
2018-Feb-16 10:29N 35°02' E 138°31'0 0.0
2018-Feb-16 09:59N 35°02' E 138°31'0 0.0
2018-Feb-16 09:29N 35°02' E 138°31'0 0.1
2018-Feb-16 08:59N 35°02' E 138°31'0 0.1
2018-Feb-16 08:29N 35°02' E 138°31'1 1.4
2018-Feb-16 08:00N 35°02' E 138°31'2 4.5
2018-Feb-16 07:30N 35°02' E 138°34'510.0
2018-Feb-16 07:00N 34°57' E 138°35'5 5.9
2018-Feb-16 06:10N 34°52' E 138°36'0 0.2
2018-Feb-16 05:49N 34°52' E 138°36'0 0.2
2018-Feb-16 05:25N 34°52' E 138°36'0 0.3
2018-Feb-16 04:16N 34°52' E 138°36'0 0.5
2018-Feb-16 03:58N 34°52' E 138°36'0 0.6
2018-Feb-16 03:25N 34°52' E 138°35'0 0.7
2018-Feb-16 02:55N 34°52' E 138°35'0 0.6
2018-Feb-16 02:28N 34°53' E 138°35'0 0.7
2018-Feb-16 01:58N 34°53' E 138°34'0 0.8
2018-Feb-16 01:28N 34°53' E 138°34'0 1.0
2018-Feb-16 00:58N 34°54' E 138°34'1 1.2
2018-Feb-16 00:25N 34°54' E 138°34'1 1.3
2018-Feb-15 23:58N 34°55' E 138°34'1 1.3
2018-Feb-15 23:28N 34°56' E 138°34'0 0.7
2018-Feb-15 22:58N 34°56' E 138°34'1 1.6
2018-Feb-15 22:30N 34°55' E 138°34'713.8
2018-Feb-15 22:00N 34°49' E 138°30'917.8
2018-Feb-15 21:30N 34°42' E 138°24'917.5
2018-Feb-15 20:59N 34°33' E 138°22'918.0
2018-Feb-15 20:30N 34°28' E 138°14'918.0
2018-Feb-15 20:00N 34°23' E 138°04'917.9
2018-Feb-15 19:30N 34°19' E 137°55'918.0
2018-Feb-15 19:00N 34°14' E 137°45'13414.9
2018-Feb-15 10:02N 33°40' E 135°09'117.8
2018-Feb-15 09:59N 33°41' E 135°09'817.8
2018-Feb-15 09:30N 33°47' E 135°02'917.5
2018-Feb-15 09:00N 33°55' E 134°59'917.6
2018-Feb-15 08:30N 34°04' E 134°58'612.1
2018-Feb-15 08:00N 34°10' E 134°57'3 6.8
2018-Feb-15 07:31N 34°13' E 134°57'713.1
2018-Feb-15 07:00N 34°20' E 134°59'917.7
2018-Feb-15 06:30N 34°27' E 135°06'917.4
2018-Feb-15 06:00N 34°33' E 135°13'714.0
2018-Feb-15 05:31N 34°40' E 135°15'1 2.4
2018-Feb-15 04:58N 34°41' E 135°15'0 0.0
2018-Feb-15 04:28N 34°41' E 135°15'0 0.0
2018-Feb-15 03:58N 34°41' E 135°15'0 0.0
2018-Feb-15 03:28N 34°41' E 135°15'0 0.0
2018-Feb-15 02:58N 34°41' E 135°15'0 0.0
2018-Feb-15 02:28N 34°41' E 135°15'0 0.0
2018-Feb-15 01:58N 34°41' E 135°15'0 0.0
2018-Feb-15 01:28N 34°41' E 135°15'0 0.0
2018-Feb-15 00:58N 34°41' E 135°15'0 0.0
2018-Feb-15 00:28N 34°41' E 135°15'0 0.0
2018-Feb-14 23:58N 34°41' E 135°15'0 0.0
2018-Feb-14 23:28N 34°41' E 135°15'0 0.0
2018-Feb-14 22:58N 34°41' E 135°15'0 0.4
2018-Feb-14 22:31N 34°41' E 135°15'4 7.3
2018-Feb-14 22:00N 34°38' E 135°17'510.1
2018-Feb-14 21:30N 34°38' E 135°23'2 3.6
2018-Feb-14 20:59N 34°39' E 135°26'0 0.0
2018-Feb-14 20:29N 34°39' E 135°26'0 0.0
2018-Feb-14 19:59N 34°39' E 135°26'0 0.0
2018-Feb-14 19:29N 34°39' E 135°26'0 0.0
2018-Feb-14 18:59N 34°39' E 135°26'0 0.0
2018-Feb-14 18:29N 34°39' E 135°26'0 0.0
2018-Feb-14 17:59N 34°39' E 135°26'0 0.0
2018-Feb-14 17:29N 34°39' E 135°26'0 0.0
2018-Feb-14 16:59N 34°39' E 135°26'0 0.0
2018-Feb-14 16:29N 34°39' E 135°26'0 0.0
2018-Feb-14 15:59N 34°39' E 135°26'0 0.0
2018-Feb-14 15:29N 34°39' E 135°26'0 0.0
2018-Feb-14 14:59N 34°39' E 135°26'0 0.0
2018-Feb-14 14:29N 34°39' E 135°26'0 0.0
2018-Feb-14 13:59N 34°39' E 135°26'0 0.0
2018-Feb-14 13:29N 34°39' E 135°26'0 0.0
2018-Feb-14 12:59N 34°39' E 135°26'0 0.0
2018-Feb-14 12:29N 34°39' E 135°26'0 0.0
2018-Feb-14 11:59N 34°39' E 135°26'0 0.0
2018-Feb-14 11:29N 34°39' E 135°26'0 0.0
2018-Feb-14 10:59N 34°39' E 135°26'0 0.0
2018-Feb-14 10:29N 34°39' E 135°26'0 0.0
2018-Feb-14 09:59N 34°39' E 135°26'0 0.0
2018-Feb-14 09:29N 34°39' E 135°26'0 0.0
2018-Feb-14 08:59N 34°39' E 135°26'  
Track history (hours):
 
Tides and Currents Weather Stations Pressure Air Temp Water Temp Dewpoint Dewpoint Depression Visibility Wind Speed Wind Dir Waves Ship Positions

Wan Hai 267

Last reported at 2018-Feb-24 08:53 UTC. Time now 2018-Feb-24 12:24 UTC.
Position N 22°20' E 114°08'.

Length 198 m; draft 9.1 m.

Type: Cargo ship. MMSI: 564527118.

Date/timePositionNaut miles runAvg speedWind from/ knotsBaromVisibWave heightAir tempDewpointWater temp
2018-Feb-24 08:53N 22°20' E 114°08'304 8.6
2018-Feb-22 21:20N 22°29' E 119°36'515.5
2018-Feb-22 20:59N 22°29' E 119°42'715.5
2018-Feb-22 20:30N 22°30' E 119°50'815.5
2018-Feb-22 20:01N 22°31' E 119°58'3 6.1
2018-Feb-22 19:30N 22°32' E 120°02'510.0
2018-Feb-22 19:00N 22°32' E 120°07'611.8
2018-Feb-22 18:30N 22°33' E 120°13'510.8
2018-Feb-22 18:00N 22°33' E 120°19'1 1.2
2018-Feb-22 17:28N 22°33' E 120°20'0 0.0
2018-Feb-22 16:58N 22°33' E 120°20'0 0.0
2018-Feb-22 16:28N 22°33' E 120°20'0 0.0
2018-Feb-22 15:58N 22°33' E 120°20'0 0.0
2018-Feb-22 15:28N 22°33' E 120°20'0 0.0
2018-Feb-22 14:58N 22°33' E 120°20'0 0.0
2018-Feb-22 14:28N 22°33' E 120°20'0 0.0
2018-Feb-22 13:58N 22°33' E 120°20'0 0.0
2018-Feb-22 13:28N 22°33' E 120°20'0 0.0
2018-Feb-22 12:58N 22°33' E 120°20'0 0.0
2018-Feb-22 12:28N 22°33' E 120°20'0 0.0
2018-Feb-22 11:58N 22°33' E 120°20'0 0.0
2018-Feb-22 11:28N 22°33' E 120°20'0 0.0
2018-Feb-22 10:58N 22°33' E 120°20'0 0.0
2018-Feb-22 10:28N 22°33' E 120°20'0 0.0
2018-Feb-22 09:58N 22°33' E 120°20'0 0.0
2018-Feb-22 09:28N 22°33' E 120°20'0 0.0
2018-Feb-22 08:58N 22°33' E 120°20'0 0.0
2018-Feb-22 08:28N 22°33' E 120°20'0 0.0
2018-Feb-22 07:58N 22°33' E 120°20'0 0.0
2018-Feb-22 07:28N 22°33' E 120°20'0 0.0
2018-Feb-22 06:58N 22°33' E 120°20'0 0.0
2018-Feb-22 06:28N 22°33' E 120°20'0 0.0
2018-Feb-22 05:58N 22°33' E 120°20'0 0.0
2018-Feb-22 05:28N 22°33' E 120°20'0 0.7
2018-Feb-22 05:00N 22°33' E 120°19'4 7.7
2018-Feb-22 04:30N 22°32' E 120°15'4 7.5
2018-Feb-22 04:00N 22°33' E 120°12'611.5
2018-Feb-22 03:30N 22°38' E 120°08'611.3
2018-Feb-22 03:00N 22°43' E 120°05'611.7
2018-Feb-22 02:30N 22°48' E 120°01'612.8
2018-Feb-22 02:00N 22°54' E 119°58'917.5
2018-Feb-22 01:30N 23°02' E 119°55'1217.4
2018-Feb-22 00:49N 23°14' E 119°53'618.2
2018-Feb-22 00:30N 23°19' E 119°54'918.5
2018-Feb-22 00:00N 23°28' E 119°54'11018.3
2018-Feb-21 18:00N 25°03' E 120°55'815.2
2018-Feb-21 17:30N 25°07' E 121°02'712.0
2018-Feb-21 16:56N 25°10' E 121°09'512.1
2018-Feb-21 16:30N 25°12' E 121°14'5 9.9
2018-Feb-21 16:00N 25°11' E 121°20'3 6.4
2018-Feb-21 15:29N 25°10' E 121°23'0 0.1
2018-Feb-21 14:59N 25°10' E 121°23'0 0.1
2018-Feb-21 14:29N 25°10' E 121°23'0 0.0
2018-Feb-21 13:56N 25°10' E 121°23'0 0.0
2018-Feb-21 10:50N 25°10' E 121°23'0 0.0
2018-Feb-21 08:56N 25°10' E 121°23'0 0.1
2018-Feb-21 08:05N 25°10' E 121°23'0 0.0
2018-Feb-21 07:44N 25°10' E 121°23'0 0.0
2018-Feb-21 07:28N 25°10' E 121°23'1 2.3
2018-Feb-21 07:00N 25°09' E 121°22'5 9.4
2018-Feb-21 06:30N 25°12' E 121°18'4 8.9
2018-Feb-21 06:00N 25°16' E 121°16'611.8
2018-Feb-21 05:30N 25°20' E 121°21'611.7
2018-Feb-21 04:59N 25°23' E 121°26'1212.8
2018-Feb-21 04:01N 25°31' E 121°37'218.7
2018-Feb-21 03:56N 25°32' E 121°39'1317.7
2018-Feb-21 03:12N 25°40' E 121°50'  
2018-Feb-18 15:59N 34°11' E 138°17'715.3
2018-Feb-18 15:30N 34°14' E 138°25'815.2
2018-Feb-18 14:59N 34°18' E 138°33'715.4
2018-Feb-18 14:30N 34°21' E 138°42'815.5
2018-Feb-18 14:00N 34°25' E 138°50'815.3
2018-Feb-18 13:30N 34°29' E 138°57'916.2
2018-Feb-18 12:58N 34°36' E 139°03'916.3
2018-Feb-18 12:24N 34°45' E 139°09'715.9
2018-Feb-18 11:58N 34°50' E 139°14'716.0
2018-Feb-18 11:30N 34°53' E 139°22'916.1
2018-Feb-18 10:58N 34°58' E 139°31'716.3
2018-Feb-18 10:30N 35°03' E 139°38'816.8
2018-Feb-18 10:00N 35°09' E 139°44'612.1
2018-Feb-18 09:30N 35°15' E 139°46'613.0
2018-Feb-18 09:00N 35°21' E 139°42'713.9
2018-Feb-18 08:31N 35°27' E 139°47'713.8
2018-Feb-18 08:01N 35°33' E 139°51'5 9.5
2018-Feb-18 07:30N 35°36' E 139°46'0 0.2
2018-Feb-18 06:52N 35°36' E 139°46'0 0.0
2018-Feb-18 06:28N 35°36' E 139°46'0 0.0
2018-Feb-18 04:28N 35°36' E 139°46'0 0.0
2018-Feb-18 02:34N 35°36' E 139°46'0 0.0
2018-Feb-18 02:13N 35°36' E 139°46'0 0.0
2018-Feb-18 01:43N 35°36' E 139°46'0 0.0
2018-Feb-17 23:43N 35°36' E 139°46'0 0.0
2018-Feb-17 23:22N 35°36' E 139°46'0 0.0
2018-Feb-17 22:55N 35°36' E 139°46'0 0.0
2018-Feb-17 22:22N 35°36' E 139°46'0 0.0
2018-Feb-17 21:46N 35°36' E 139°46'0 0.0
2018-Feb-17 21:28N 35°36' E 139°46'0 0.0
2018-Feb-17 20:58N 35°36' E 139°46'0 0.0
2018-Feb-17 20:25N 35°36' E 139°46'0 0.0
2018-Feb-17 19:55N 35°36' E 139°46'0 0.0
2018-Feb-17 19:25N 35°36' E 139°46'0 0.0
2018-Feb-17 18:55N 35°36' E 139°46'0 0.0
2018-Feb-17 18:25N 35°36' E 139°46'0 0.0
2018-Feb-17 17:58N 35°36' E 139°46'0 0.0
2018-Feb-17 17:28N 35°36' E 139°46'0 0.0
2018-Feb-17 16:58N 35°36' E 139°46'0 0.0
2018-Feb-17 16:22N 35°36' E 139°46'0 0.0
2018-Feb-17 15:58N 35°36' E 139°46'0 0.0
2018-Feb-17 15:22N 35°36' E 139°46'0 0.0
2018-Feb-17 14:43N 35°36' E 139°46'0 0.0
2018-Feb-17 14:21N 35°36' E 139°46'0 0.8
2018-Feb-17 14:00N 35°36' E 139°46'2 4.3
2018-Feb-17 13:30N 35°35' E 139°48'5 9.3
2018-Feb-17 13:00N 35°31' E 139°52'612.0
2018-Feb-17 12:30N 35°26' E 139°48'510.3
2018-Feb-17 12:00N 35°27' E 139°41'0 0.8
2018-Feb-17 11:30N 35°27' E 139°41'0 0.0
2018-Feb-17 11:00N 35°27' E 139°41'0 0.0
2018-Feb-17 10:30N 35°27' E 139°41'0 0.0
2018-Feb-17 10:00N 35°27' E 139°41'0 0.0
2018-Feb-17 09:30N 35°27' E 139°41'0 0.0
2018-Feb-17 09:00N 35°27' E 139°41'0 0.0
2018-Feb-17 08:30N 35°27' E 139°41'0 0.0
2018-Feb-17 08:00N 35°27' E 139°41'0 0.0
2018-Feb-17 07:30N 35°27' E 139°41'0 0.0
2018-Feb-17 07:00N 35°27' E 139°41'0 0.0
2018-Feb-17 06:30N 35°27' E 139°41'0 0.0
2018-Feb-17 06:00N 35°27' E 139°41'0 0.0
2018-Feb-17 05:30N 35°27' E 139°41'0 0.0
2018-Feb-17 05:00N 35°27' E 139°41'0 0.0
2018-Feb-17 04:30N 35°27' E 139°41'0 0.0
2018-Feb-17 04:00N 35°27' E 139°41'0 0.0
2018-Feb-17 03:30N 35°27' E 139°41'0 0.0
2018-Feb-17 03:00N 35°27' E 139°41'0 0.0
2018-Feb-17 02:30N 35°27' E 139°41'0 0.0
2018-Feb-17 02:00N 35°27' E 139°41'0 0.1
2018-Feb-17 01:30N 35°27' E 139°41'0 0.1
2018-Feb-17 01:00N 35°27' E 139°41'2 3.6
2018-Feb-17 00:30N 35°26' E 139°43'4 7.7
2018-Feb-17 00:01N 35°22' E 139°43'5 9.6
2018-Feb-16 23:30N 35°17' E 139°45'510.6
2018-Feb-16 23:00N 35°12' E 139°47'4 8.7
2018-Feb-16 22:30N 35°08' E 139°46'3 6.8
2018-Feb-16 22:00N 35°04' E 139°45'3 6.4
2018-Feb-16 21:31N 35°02' E 139°43'3 6.1
2018-Feb-16 21:00N 35°00' E 139°40'3 6.5
2018-Feb-16 20:31N 34°59' E 139°36'917.2
2018-Feb-16 20:00N 34°55' E 139°27'1018.5
2018-Feb-16 19:29N 34°49' E 139°18'1118.2
2018-Feb-16 18:52N 34°40' E 139°09'718.1
2018-Feb-16 18:29N 34°35' E 139°03'917.6
2018-Feb-16 17:58N 34°31' E 138°53'816.6
2018-Feb-16 17:29N 34°34' E 138°44'816.8
2018-Feb-16 17:00N 34°42' E 138°41'817.0
2018-Feb-16 16:30N 34°50' E 138°38'816.9
2018-Feb-16 16:00N 34°58' E 138°34'510.4
2018-Feb-16 15:30N 35°02' E 138°31'1 1.6
2018-Feb-16 14:59N 35°02' E 138°31'0 0.0
2018-Feb-16 14:29N 35°02' E 138°31'0 0.0
2018-Feb-16 13:59N 35°02' E 138°31'0 0.0
2018-Feb-16 13:29N 35°02' E 138°31'0 0.0
2018-Feb-16 12:59N 35°02' E 138°31'0 0.0
2018-Feb-16 12:29N 35°02' E 138°31'0 0.0
2018-Feb-16 11:59N 35°02' E 138°31'0 0.0
2018-Feb-16 11:29N 35°02' E 138°31'0 0.0
2018-Feb-16 10:59N 35°02' E 138°31'0 0.0
2018-Feb-16 10:29N 35°02' E 138°31'0 0.0
2018-Feb-16 09:59N 35°02' E 138°31'0 0.0
2018-Feb-16 09:29N 35°02' E 138°31'0 0.1
2018-Feb-16 08:59N 35°02' E 138°31'0 0.1
2018-Feb-16 08:29N 35°02' E 138°31'1 1.4
2018-Feb-16 08:00N 35°02' E 138°31'2 4.5
2018-Feb-16 07:30N 35°02' E 138°34'510.0
2018-Feb-16 07:00N 34°57' E 138°35'5 5.9
2018-Feb-16 06:10N 34°52' E 138°36'0 0.2
2018-Feb-16 05:49N 34°52' E 138°36'0 0.2
2018-Feb-16 05:25N 34°52' E 138°36'0 0.3
2018-Feb-16 04:16N 34°52' E 138°36'0 0.5
2018-Feb-16 03:58N 34°52' E 138°36'0 0.6
2018-Feb-16 03:25N 34°52' E 138°35'0 0.7
2018-Feb-16 02:55N 34°52' E 138°35'0 0.6
2018-Feb-16 02:28N 34°53' E 138°35'0 0.7
2018-Feb-16 01:58N 34°53' E 138°34'0 0.8
2018-Feb-16 01:28N 34°53' E 138°34'0 1.0
2018-Feb-16 00:58N 34°54' E 138°34'1 1.2
2018-Feb-16 00:25N 34°54' E 138°34'1 1.3
2018-Feb-15 23:58N 34°55' E 138°34'1 1.3
2018-Feb-15 23:28N 34°56' E 138°34'0 0.7
2018-Feb-15 22:58N 34°56' E 138°34'1 1.6
2018-Feb-15 22:30N 34°55' E 138°34'713.8
2018-Feb-15 22:00N 34°49' E 138°30'917.8
2018-Feb-15 21:30N 34°42' E 138°24'917.5
2018-Feb-15 20:59N 34°33' E 138°22'918.0
2018-Feb-15 20:30N 34°28' E 138°14'918.0
2018-Feb-15 20:00N 34°23' E 138°04'917.9
2018-Feb-15 19:30N 34°19' E 137°55'918.0
2018-Feb-15 19:00N 34°14' E 137°45'13414.9
2018-Feb-15 10:02N 33°40' E 135°09'117.8
2018-Feb-15 09:59N 33°41' E 135°09'817.8
2018-Feb-15 09:30N 33°47' E 135°02'917.5
2018-Feb-15 09:00N 33°55' E 134°59'917.6
2018-Feb-15 08:30N 34°04' E 134°58'612.1
2018-Feb-15 08:00N 34°10' E 134°57'3 6.8
2018-Feb-15 07:31N 34°13' E 134°57'713.1
2018-Feb-15 07:00N 34°20' E 134°59'917.7
2018-Feb-15 06:30N 34°27' E 135°06'917.4
2018-Feb-15 06:00N 34°33' E 135°13'714.0
2018-Feb-15 05:31N 34°40' E 135°15'1 2.4
2018-Feb-15 04:58N 34°41' E 135°15'0 0.0
2018-Feb-15 04:28N 34°41' E 135°15'0 0.0
2018-Feb-15 03:58N 34°41' E 135°15'0 0.0
2018-Feb-15 03:28N 34°41' E 135°15'0 0.0
2018-Feb-15 02:58N 34°41' E 135°15'0 0.0
2018-Feb-15 02:28N 34°41' E 135°15'0 0.0
2018-Feb-15 01:58N 34°41' E 135°15'0 0.0
2018-Feb-15 01:28N 34°41' E 135°15'0 0.0
2018-Feb-15 00:58N 34°41' E 135°15'0 0.0
2018-Feb-15 00:28N 34°41' E 135°15'0 0.0
2018-Feb-14 23:58N 34°41' E 135°15'0 0.0
2018-Feb-14 23:28N 34°41' E 135°15'0 0.0
2018-Feb-14 22:58N 34°41' E 135°15'0 0.4
2018-Feb-14 22:31N 34°41' E 135°15'4 7.3
2018-Feb-14 22:00N 34°38' E 135°17'510.1
2018-Feb-14 21:30N 34°38' E 135°23'2 3.6
2018-Feb-14 20:59N 34°39' E 135°26'0 0.0
2018-Feb-14 20:29N 34°39' E 135°26'0 0.0
2018-Feb-14 19:59N 34°39' E 135°26'0 0.0
2018-Feb-14 19:29N 34°39' E 135°26'0 0.0
2018-Feb-14 18:59N 34°39' E 135°26'0 0.0
2018-Feb-14 18:29N 34°39' E 135°26'0 0.0
2018-Feb-14 17:59N 34°39' E 135°26'0 0.0
2018-Feb-14 17:29N 34°39' E 135°26'0 0.0
2018-Feb-14 16:59N 34°39' E 135°26'0 0.0
2018-Feb-14 16:29N 34°39' E 135°26'0 0.0
2018-Feb-14 15:59N 34°39' E 135°26'0 0.0
2018-Feb-14 15:29N 34°39' E 135°26'0 0.0
2018-Feb-14 14:59N 34°39' E 135°26'0 0.0
2018-Feb-14 14:29N 34°39' E 135°26'0 0.0
2018-Feb-14 13:59N 34°39' E 135°26'0 0.0
2018-Feb-14 13:29N 34°39' E 135°26'0 0.0
2018-Feb-14 12:59N 34°39' E 135°26'0 0.0
2018-Feb-14 12:29N 34°39' E 135°26'0 0.0
2018-Feb-14 11:59N 34°39' E 135°26'0 0.0
2018-Feb-14 11:29N 34°39' E 135°26'0 0.0
2018-Feb-14 10:59N 34°39' E 135°26'0 0.0
2018-Feb-14 10:29N 34°39' E 135°26'0 0.0
2018-Feb-14 09:59N 34°39' E 135°26'0 0.0
2018-Feb-14 09:29N 34°39' E 135°26'0 0.0
2018-Feb-14 08:59N 34°39' E 135°26'  

Dump ship's entire track history